Araguaina, Brazil
Current Conditions -  °F | °C
As of 12:10 AM on Saturday 20 Dec 2014 (Local Time) from SBIZ Reporting Station
Clear Clear  
Wind Chill: 75°   Ceiling: Unl
Heat Index: 75°   Visibility: 6mi
Dew Point: 75°   Wind: 0mph
Humidity: 100%   Direction: NA
Pressure: 29.85"   Gusts: NA
Location:  7.19°S, 48.21°W
Report Text: SBIZ 200310Z 00000KT CAVOK 24/24 Q1011
Loading
Personal Weather Stations






























Interactive Weather Map New forecast layout! Learn more

10-Day Weather Forecast

Advertisements
Track Severe Weather on mobile